createdAt,value
2023-04-13T00:02:04.782Z,16.53
2023-04-13T00:04:35.620Z,16.57
2023-04-13T00:07:06.054Z,16.55
2023-04-13T00:09:36.637Z,16.65
2023-04-13T00:12:07.230Z,16.71
2023-04-13T00:14:37.789Z,16.63
2023-04-13T00:17:08.414Z,16.60
2023-04-13T00:19:38.964Z,16.59
2023-04-13T00:22:12.250Z,16.70
2023-04-13T00:24:45.638Z,16.66
2023-04-13T00:27:16.062Z,16.68
2023-04-13T00:29:46.530Z,16.70
2023-04-13T00:32:17.235Z,16.75
2023-04-13T00:34:48.076Z,16.76
2023-04-13T00:37:20.040Z,16.74
2023-04-13T00:39:50.782Z,16.73
2023-04-13T00:42:21.652Z,16.78
2023-04-13T00:44:52.315Z,16.74
2023-04-13T00:47:28.716Z,16.80
2023-04-13T00:50:01.161Z,16.87
2023-04-13T00:52:32.148Z,16.82
2023-04-13T00:55:04.266Z,16.84
2023-04-13T00:57:36.476Z,16.85
2023-04-13T01:00:12.825Z,16.82
2023-04-13T01:02:43.583Z,16.82
2023-04-13T01:05:18.341Z,16.84
2023-04-13T01:08:20.802Z,16.83
2023-04-13T01:11:09.264Z,16.89
2023-04-13T01:13:57.649Z,16.88
2023-04-13T01:16:39.395Z,16.98
2023-04-13T01:19:24.692Z,17.00
2023-04-13T01:21:56.105Z,16.92
2023-04-13T01:24:29.297Z,16.91
2023-04-13T01:27:27.705Z,16.96
2023-04-13T01:30:01.411Z,17.01
2023-04-13T01:32:34.825Z,17.03
2023-04-13T01:35:08.275Z,16.99
2023-04-13T01:37:44.589Z,17.06
2023-04-13T01:40:16.953Z,17.04
2023-04-13T01:42:52.979Z,17.04
2023-04-13T01:45:31.474Z,17.03
2023-04-13T01:48:20.775Z,17.05
2023-04-13T01:51:10.872Z,17.04
2023-04-13T01:53:58.949Z,17.13
2023-04-13T01:56:31.784Z,17.11
2023-04-13T01:59:06.677Z,17.19
2023-04-13T02:01:43.092Z,17.17
2023-04-13T02:04:14.190Z,17.14
2023-04-13T02:06:48.144Z,17.15
2023-04-13T02:09:18.710Z,17.18
2023-04-13T02:11:49.514Z,17.26
2023-04-13T02:14:20.756Z,17.42
2023-04-13T02:16:52.619Z,17.30
2023-04-13T02:19:23.740Z,17.25
2023-04-13T02:21:54.992Z,17.27
2023-04-13T02:24:26.229Z,17.16
2023-04-13T02:26:58.274Z,17.30
2023-04-13T02:29:31.605Z,17.29
2023-04-13T02:32:03.022Z,17.31
2023-04-13T02:34:33.638Z,17.31
2023-04-13T02:37:04.683Z,17.30
2023-04-13T02:39:35.193Z,17.30
2023-04-13T02:42:06.743Z,17.40
2023-04-13T02:44:37.861Z,17.49
2023-04-13T02:47:08.865Z,17.55
2023-04-13T02:49:43.314Z,17.51
2023-04-13T02:52:23.126Z,17.45
2023-04-13T02:55:04.559Z,17.47
2023-04-13T02:57:48.232Z,17.49
2023-04-13T03:00:19.623Z,17.57
2023-04-13T03:03:07.680Z,17.56
2023-04-13T03:05:45.146Z,17.55
2023-04-13T03:08:20.340Z,17.55
2023-04-13T03:11:17.672Z,17.63
2023-04-13T03:13:59.885Z,17.77
2023-04-13T03:16:30.572Z,17.78
2023-04-13T03:19:02.282Z,17.74
2023-04-13T03:21:32.942Z,17.68
2023-04-13T03:24:13.140Z,17.67
2023-04-13T03:26:44.056Z,17.77
2023-04-13T03:29:18.681Z,17.83
2023-04-13T03:31:49.409Z,18.03
2023-04-13T03:34:21.210Z,17.94
2023-04-13T03:36:55.630Z,17.86
2023-04-13T03:39:26.331Z,17.80
2023-04-13T03:41:57.685Z,17.90
2023-04-13T03:44:29.729Z,17.99
2023-04-13T03:47:02.932Z,17.97
2023-04-13T03:49:38.499Z,18.04
2023-04-13T03:52:09.898Z,17.93
2023-04-13T03:54:44.131Z,17.90
2023-04-13T03:57:19.957Z,17.88
2023-04-13T03:59:51.001Z,17.94
2023-04-13T04:02:30.514Z,17.95
2023-04-13T04:05:03.068Z,17.99
2023-04-13T04:07:33.910Z,18.05
2023-04-13T04:10:06.345Z,18.04
2023-04-13T04:12:36.845Z,18.09
2023-04-13T04:15:11.197Z,18.11
2023-04-13T04:17:44.526Z,18.17
2023-04-13T04:20:16.080Z,18.04
2023-04-13T04:22:48.921Z,18.09
2023-04-13T04:25:23.532Z,18.00
2023-04-13T04:28:07.922Z,18.04
2023-04-13T04:30:38.287Z,18.04
2023-04-13T04:33:09.199Z,17.91
2023-04-13T04:35:54.730Z,17.90
2023-04-13T04:38:34.351Z,17.91
2023-04-13T04:41:13.288Z,17.95
2023-04-13T04:43:47.856Z,17.97
2023-04-13T04:46:18.989Z,18.06
2023-04-13T04:48:57.199Z,18.03
2023-04-13T04:51:29.595Z,18.02
2023-04-13T04:54:03.625Z,18.02
2023-04-13T04:56:34.384Z,18.10
2023-04-13T04:59:04.985Z,18.20
2023-04-13T05:01:44.609Z,18.22
2023-04-13T05:04:16.404Z,18.25
2023-04-13T05:06:48.345Z,18.16
2023-04-13T05:09:22.883Z,18.15
2023-04-13T05:11:56.305Z,18.16
2023-04-13T05:14:26.855Z,18.19
2023-04-13T05:16:57.852Z,18.19
2023-04-13T05:19:33.109Z,18.23
2023-04-13T05:22:09.929Z,18.20
2023-04-13T05:24:47.303Z,18.20
2023-04-13T05:27:19.665Z,18.26
2023-04-13T05:29:50.271Z,18.54
2023-04-13T05:32:24.785Z,18.46
2023-04-13T05:34:57.484Z,18.42
2023-04-13T05:37:30.234Z,18.32
2023-04-13T05:40:01.084Z,18.31
2023-04-13T05:42:35.723Z,18.33
2023-04-13T05:45:11.266Z,18.33
2023-04-13T05:47:58.323Z,18.42
2023-04-13T05:50:30.042Z,18.37
2023-04-13T05:53:00.751Z,18.35
2023-04-13T05:55:46.748Z,18.38
2023-04-13T05:58:20.709Z,18.36
2023-04-13T06:01:00.331Z,18.41
2023-04-13T06:03:34.391Z,18.36
2023-04-13T06:06:07.158Z,18.35
2023-04-13T06:08:39.071Z,18.37
2023-04-13T06:11:09.716Z,18.31
2023-04-13T06:13:42.724Z,18.28
2023-04-13T06:16:13.380Z,18.26
2023-04-13T06:18:44.096Z,18.25
2023-04-13T06:21:14.716Z,18.23
2023-04-13T06:23:45.714Z,18.23
2023-04-13T06:26:24.699Z,18.18
2023-04-13T06:28:59.744Z,18.16
2023-04-13T06:31:31.445Z,18.14
2023-04-13T06:34:05.452Z,18.12
2023-04-13T06:36:39.486Z,18.13
2023-04-13T06:39:11.906Z,18.13
2023-04-13T06:41:46.012Z,18.10
2023-04-13T06:44:36.461Z,18.10
2023-04-13T06:47:07.912Z,18.08
2023-04-13T06:49:38.705Z,18.06
2023-04-13T06:52:09.454Z,18.05
2023-04-13T06:54:39.963Z,18.07
2023-04-13T06:57:22.995Z,18.06
2023-04-13T06:59:53.612Z,18.06
2023-04-13T07:02:25.024Z,18.07
2023-04-13T07:04:56.234Z,18.07
2023-04-13T07:07:28.696Z,18.06
2023-04-13T07:10:00.464Z,18.06
2023-04-13T07:12:32.397Z,18.05
2023-04-13T07:15:03.154Z,18.06
2023-04-13T07:17:35.335Z,18.05
2023-04-13T07:20:08.925Z,18.04
2023-04-13T07:22:39.765Z,18.04
2023-04-13T07:25:12.060Z,18.05
2023-04-13T07:27:42.808Z,18.03
2023-04-13T07:30:13.737Z,18.03
2023-04-13T07:32:48.247Z,18.04
2023-04-13T07:35:19.045Z,18.03
2023-04-13T07:37:53.117Z,18.01
2023-04-13T07:40:24.928Z,18.02
2023-04-13T07:42:59.222Z,18.00
2023-04-13T07:45:33.027Z,18.00
2023-04-13T07:48:04.344Z,18.01
2023-04-13T07:50:36.712Z,18.00
2023-04-13T07:53:07.219Z,18.00
2023-04-13T07:55:39.535Z,18.00
2023-04-13T07:58:11.006Z,18.00
2023-04-13T08:00:41.859Z,17.97
2023-04-13T08:03:12.353Z,17.97
2023-04-13T08:05:46.448Z,17.97
2023-04-13T08:08:18.477Z,17.98
2023-04-13T08:10:49.080Z,17.97
2023-04-13T08:13:20.202Z,17.95
2023-04-13T08:15:50.869Z,17.94
2023-04-13T08:18:21.930Z,17.94
2023-04-13T08:20:52.540Z,17.93
2023-04-13T08:23:23.974Z,17.92
2023-04-13T08:25:54.497Z,17.92
2023-04-13T08:28:24.935Z,17.93
2023-04-13T08:30:55.409Z,17.91
2023-04-13T08:33:26.233Z,17.90
2023-04-13T08:35:57.277Z,17.89
2023-04-13T08:38:28.349Z,17.89
2023-04-13T08:41:00.364Z,17.88
2023-04-13T08:43:38.968Z,17.87
2023-04-13T08:46:10.340Z,17.86
2023-04-13T08:48:54.118Z,17.84
2023-04-13T08:51:36.062Z,17.85
2023-04-13T08:54:08.547Z,17.84
2023-04-13T08:56:46.658Z,17.83
2023-04-13T08:59:24.703Z,17.83
2023-04-13T09:01:57.311Z,17.83
2023-04-13T09:04:37.655Z,17.82
2023-04-13T09:07:10.053Z,17.82
2023-04-13T09:09:45.457Z,17.81
2023-04-13T09:12:17.317Z,17.81
2023-04-13T09:14:47.812Z,17.81
2023-04-13T09:17:27.658Z,17.80
2023-04-13T09:20:12.824Z,17.78
2023-04-13T09:22:43.388Z,17.80
2023-04-13T09:25:42.627Z,17.79
2023-04-13T09:28:21.205Z,17.76
2023-04-13T09:30:51.908Z,17.77
2023-04-13T09:33:22.334Z,17.76
2023-04-13T09:35:53.162Z,17.76
2023-04-13T09:38:34.317Z,17.75
2023-04-13T09:41:05.063Z,17.74
2023-04-13T09:43:40.388Z,17.74
2023-04-13T09:46:17.733Z,17.73
2023-04-13T09:48:59.781Z,17.73
2023-04-13T09:51:39.209Z,17.72
2023-04-13T09:54:10.060Z,17.72
2023-04-13T09:57:01.345Z,17.72
2023-04-13T09:59:34.353Z,17.70
2023-04-13T10:02:05.700Z,17.72
2023-04-13T10:04:37.581Z,17.68
2023-04-13T10:07:09.104Z,17.68
2023-04-13T10:09:39.654Z,17.68
2023-04-13T10:12:15.495Z,17.67
2023-04-13T10:14:50.300Z,17.67
2023-04-13T10:17:46.006Z,17.66
2023-04-13T10:20:17.908Z,17.66
2023-04-13T10:22:49.303Z,17.65
2023-04-13T10:25:32.262Z,17.67
2023-04-13T10:28:04.995Z,17.64
2023-04-13T10:30:35.478Z,17.64
2023-04-13T10:33:15.168Z,17.64
2023-04-13T10:35:56.374Z,17.62
2023-04-13T10:38:27.802Z,17.63
2023-04-13T10:41:00.100Z,17.62
2023-04-13T10:43:34.818Z,17.61
2023-04-13T10:46:09.255Z,17.60
2023-04-13T10:48:40.070Z,17.59
2023-04-13T10:51:10.864Z,17.59
2023-04-13T10:53:41.235Z,17.60
2023-04-13T10:56:19.439Z,17.59
2023-04-13T10:58:56.021Z,17.58
2023-04-13T11:01:26.996Z,17.57
2023-04-13T11:04:05.141Z,17.57
2023-04-13T11:06:41.026Z,17.57
2023-04-13T11:09:16.029Z,17.55
2023-04-13T11:11:53.946Z,17.54
2023-04-13T11:14:24.501Z,17.53
2023-04-13T11:16:58.520Z,17.53
2023-04-13T11:19:29.154Z,17.52
2023-04-13T11:22:01.203Z,17.51
2023-04-13T11:24:35.603Z,17.51
2023-04-13T11:27:07.039Z,17.51
2023-04-13T11:29:37.472Z,17.52
2023-04-13T11:32:08.056Z,17.51
2023-04-13T11:34:39.400Z,17.50
2023-04-13T11:37:09.783Z,17.49
2023-04-13T11:39:41.611Z,17.49
2023-04-13T11:42:13.613Z,17.49
2023-04-13T11:44:47.135Z,17.47
2023-04-13T11:47:20.596Z,17.48
2023-04-13T11:49:52.080Z,17.48
2023-04-13T11:52:22.799Z,17.46
2023-04-13T11:54:55.044Z,17.46
2023-04-13T11:57:26.559Z,17.45
2023-04-13T11:59:58.616Z,17.45
2023-04-13T12:02:43.129Z,17.44
2023-04-13T12:05:27.582Z,17.44
2023-04-13T12:08:00.337Z,17.42
2023-04-13T12:10:41.416Z,17.41
2023-04-13T12:13:28.092Z,17.41
2023-04-13T12:16:13.310Z,17.40
2023-04-13T12:18:50.067Z,17.39
2023-04-13T12:21:23.520Z,17.39
2023-04-13T12:24:00.394Z,17.39
2023-04-13T12:29:11.924Z,17.37
2023-04-13T12:31:45.899Z,17.37
2023-04-13T12:34:16.936Z,17.36
2023-04-13T12:36:48.369Z,17.37
2023-04-13T12:39:18.887Z,17.34
2023-04-13T12:41:49.451Z,17.33
2023-04-13T12:44:19.854Z,17.33
2023-04-13T12:46:50.244Z,17.33
2023-04-13T12:49:20.726Z,17.33
2023-04-13T12:51:52.017Z,17.31
2023-04-13T12:54:22.622Z,17.31
2023-04-13T12:56:54.412Z,17.32
2023-04-13T12:59:24.949Z,17.31
2023-04-13T13:01:55.982Z,17.30
2023-04-13T13:04:26.592Z,17.30
2023-04-13T13:06:57.008Z,17.29
2023-04-13T13:09:28.435Z,17.28
2023-04-13T13:11:58.914Z,17.28
2023-04-13T13:14:29.633Z,17.28
2023-04-13T13:16:59.987Z,17.28
2023-04-13T13:19:30.532Z,17.27
2023-04-13T13:22:02.905Z,17.27
2023-04-13T13:24:34.032Z,17.25
2023-04-13T13:29:38.731Z,17.24
2023-04-13T13:32:09.701Z,17.24
2023-04-13T13:34:40.206Z,17.24
2023-04-13T13:37:10.578Z,17.24
2023-04-13T13:39:41.188Z,17.22
2023-04-13T13:42:11.642Z,17.22
2023-04-13T13:44:43.076Z,17.22
2023-04-13T13:47:13.568Z,17.20
2023-04-13T13:49:47.893Z,17.21
2023-04-13T13:52:35.273Z,17.21
2023-04-13T13:55:08.775Z,17.20
2023-04-13T13:57:39.226Z,17.18
2023-04-13T14:00:17.987Z,17.19
2023-04-13T14:02:49.494Z,17.18
2023-04-13T14:05:20.053Z,17.18
2023-04-13T14:07:50.748Z,17.18
2023-04-13T14:10:22.106Z,17.17
2023-04-13T14:12:54.182Z,17.17
2023-04-13T14:15:25.184Z,17.15
2023-04-13T14:18:08.995Z,17.16
2023-04-13T14:20:41.488Z,17.15
2023-04-13T14:23:11.906Z,17.15
2023-04-13T14:25:42.814Z,17.15
2023-04-13T14:28:13.417Z,17.14
2023-04-13T14:30:44.677Z,17.14
2023-04-13T14:33:18.863Z,17.14
2023-04-13T14:35:49.322Z,17.13
2023-04-13T14:38:20.040Z,17.12
2023-04-13T14:40:50.563Z,17.11
2023-04-13T14:43:23.846Z,17.12
2023-04-13T14:45:56.707Z,17.11
2023-04-13T14:48:29.130Z,17.11
2023-04-13T14:50:59.683Z,17.10
2023-04-13T14:53:32.322Z,17.09
2023-04-13T14:56:02.995Z,17.09
2023-04-13T14:58:34.038Z,17.07
2023-04-13T15:01:06.220Z,17.08
2023-04-13T15:03:36.713Z,17.06
2023-04-13T15:06:08.195Z,17.06
2023-04-13T15:08:38.731Z,17.06
2023-04-13T15:11:12.991Z,17.06
2023-04-13T15:13:44.260Z,17.05
2023-04-13T15:16:14.857Z,17.02
2023-04-13T15:18:45.505Z,17.01
2023-04-13T15:21:16.085Z,17.04
2023-04-13T15:23:46.497Z,17.02
2023-04-13T15:26:20.940Z,17.02
2023-04-13T15:28:51.566Z,17.02
2023-04-13T15:31:23.793Z,17.01
2023-04-13T15:33:55.042Z,17.01
2023-04-13T15:36:25.506Z,17.01
2023-04-13T15:38:56.145Z,17.00
2023-04-13T15:41:27.420Z,17.00
2023-04-13T15:44:00.627Z,16.99
2023-04-13T15:46:31.411Z,16.99
2023-04-13T15:49:02.886Z,16.98
2023-04-13T15:51:33.780Z,16.98
2023-04-13T15:54:04.914Z,16.97
2023-04-13T15:56:35.379Z,16.97
2023-04-13T15:59:06.063Z,16.96
2023-04-13T16:01:51.109Z,16.95
2023-04-13T16:04:21.806Z,16.96
2023-04-13T16:07:05.035Z,16.95
2023-04-13T16:09:40.355Z,16.95
2023-04-13T16:12:13.846Z,16.95
2023-04-13T16:14:46.635Z,16.95
2023-04-13T16:17:17.158Z,16.93
2023-04-13T16:19:48.275Z,16.93
2023-04-13T16:22:19.453Z,16.92
2023-04-13T16:24:51.035Z,16.91
2023-04-13T16:27:21.471Z,16.92
2023-04-13T16:29:53.598Z,16.92
2023-04-13T16:32:24.125Z,16.92
2023-04-13T16:34:55.150Z,16.90
2023-04-13T16:37:25.709Z,16.89
2023-04-13T16:39:57.458Z,16.89
2023-04-13T16:42:28.135Z,16.89
2023-04-13T16:44:58.497Z,16.89
2023-04-13T16:47:28.974Z,16.88
2023-04-13T16:49:59.716Z,16.89
2023-04-13T16:52:30.559Z,16.87
2023-04-13T16:55:01.338Z,16.88
2023-04-13T16:57:31.817Z,16.87
2023-04-13T17:00:08.382Z,16.86
2023-04-13T17:02:41.260Z,16.86
2023-04-13T17:05:13.963Z,16.86
2023-04-13T17:07:48.272Z,16.86
2023-04-13T17:10:20.085Z,16.85
2023-04-13T17:12:54.334Z,16.85
2023-04-13T17:15:24.940Z,16.84
2023-04-13T17:17:56.374Z,16.84
2023-04-13T17:20:28.088Z,16.84
2023-04-13T17:22:59.545Z,16.83
2023-04-13T17:25:30.024Z,16.83
2023-04-13T17:28:00.557Z,16.83
2023-04-13T17:30:30.948Z,16.83
2023-04-13T17:35:33.050Z,16.82
2023-04-13T17:38:04.093Z,16.82
2023-04-13T17:40:34.663Z,16.81
2023-04-13T17:43:07.104Z,16.81
2023-04-13T17:45:39.932Z,16.80
2023-04-13T17:48:12.532Z,16.80
2023-04-13T17:50:42.935Z,16.79
2023-04-13T17:53:13.462Z,16.79
2023-04-13T17:55:43.952Z,16.78
2023-04-13T17:58:14.395Z,16.78
2023-04-13T18:00:45.470Z,16.77
2023-04-13T18:03:16.013Z,16.78
2023-04-13T18:05:49.898Z,16.77
2023-04-13T18:08:19.660Z,16.77
2023-04-13T18:10:50.073Z,16.76
2023-04-13T18:13:20.662Z,16.75
2023-04-13T18:15:51.771Z,16.76
2023-04-13T18:18:26.454Z,16.74
2023-04-13T18:20:56.841Z,16.74
2023-04-13T18:23:27.443Z,16.74
2023-04-13T18:25:58.089Z,16.74
2023-04-13T18:28:28.520Z,16.73
2023-04-13T18:31:06.877Z,16.74
2023-04-13T18:33:37.907Z,16.73
2023-04-13T18:36:08.755Z,16.73
2023-04-13T18:38:39.738Z,16.73
2023-04-13T18:41:10.337Z,16.72
2023-04-13T18:43:41.112Z,16.72
2023-04-13T18:46:13.412Z,16.72
2023-04-13T18:48:43.803Z,16.72
2023-04-13T18:51:14.489Z,16.72
2023-04-13T18:53:45.161Z,16.71
2023-04-13T18:56:16.157Z,16.71
2023-04-13T18:58:46.602Z,16.71
2023-04-13T19:01:23.729Z,16.71
2023-04-13T19:03:55.068Z,16.71
2023-04-13T19:06:25.662Z,16.71
2023-04-13T19:08:56.368Z,16.70
2023-04-13T19:11:28.986Z,16.69
2023-04-13T19:13:59.780Z,16.69
2023-04-13T19:16:31.154Z,16.68
2023-04-13T19:19:01.409Z,16.69
2023-04-13T19:21:32.652Z,16.67
2023-04-13T19:24:03.308Z,16.67
2023-04-13T19:26:34.199Z,16.68
2023-04-13T19:29:05.574Z,16.67
2023-04-13T19:31:41.068Z,16.67
2023-04-13T19:34:13.040Z,16.66
2023-04-13T19:36:44.183Z,16.66
2023-04-13T19:39:15.201Z,16.66
2023-04-13T19:41:45.887Z,16.65
2023-04-13T19:44:18.339Z,16.64
2023-04-13T19:46:49.255Z,16.65
2023-04-13T19:49:19.915Z,16.64
2023-04-13T19:51:51.195Z,16.65
2023-04-13T19:54:22.351Z,16.64
2023-04-13T19:56:53.048Z,16.64
2023-04-13T19:59:23.563Z,16.63
2023-04-13T20:01:54.163Z,16.63
2023-04-13T20:04:26.306Z,16.62
2023-04-13T20:06:57.640Z,16.61
2023-04-13T20:09:28.243Z,16.62
2023-04-13T20:11:58.780Z,16.62
2023-04-13T20:14:29.281Z,16.62
2023-04-13T20:16:59.754Z,16.62
2023-04-13T20:19:30.222Z,16.62
2023-04-13T20:22:03.681Z,16.61
2023-04-13T20:24:34.271Z,16.61
2023-04-13T20:27:04.767Z,16.60
2023-04-13T20:29:35.213Z,16.60
2023-04-13T20:32:05.627Z,16.60
2023-04-13T20:34:39.517Z,16.60
2023-04-13T20:37:15.692Z,16.60
2023-04-13T20:39:55.366Z,16.59
2023-04-13T20:42:26.417Z,16.59
2023-04-13T20:45:00.124Z,16.59
2023-04-13T20:47:37.114Z,16.59
2023-04-13T20:50:08.752Z,16.58
2023-04-13T20:52:43.252Z,16.58
2023-04-13T20:55:13.854Z,16.58
2023-04-13T20:57:44.206Z,16.56
2023-04-13T21:00:16.085Z,16.56
2023-04-13T21:02:48.306Z,16.55
2023-04-13T21:05:19.000Z,16.55
2023-04-13T21:07:49.307Z,16.53
2023-04-13T21:10:22.967Z,16.53
2023-04-13T21:12:53.483Z,16.52
2023-04-13T21:15:23.894Z,16.53
2023-04-13T21:17:54.456Z,16.52
2023-04-13T21:20:25.525Z,16.52
2023-04-13T21:22:56.088Z,16.52
2023-04-13T21:25:26.494Z,16.49
2023-04-13T21:27:57.242Z,16.51
2023-04-13T21:30:27.737Z,16.50
2023-04-13T21:32:58.325Z,16.50
2023-04-13T21:35:28.807Z,16.51
2023-04-13T21:37:59.286Z,16.51
2023-04-13T21:40:29.870Z,16.50
2023-04-13T21:43:00.270Z,16.49
2023-04-13T21:45:31.036Z,16.48
2023-04-13T21:48:01.324Z,16.48
2023-04-13T21:50:31.727Z,16.48
2023-04-13T21:53:02.136Z,16.49
2023-04-13T21:55:32.633Z,16.47
2023-04-13T21:58:03.357Z,16.48
2023-04-13T22:00:34.091Z,16.47
2023-04-13T22:03:04.986Z,16.48
2023-04-13T22:05:35.526Z,16.48
2023-04-13T22:08:05.994Z,16.48
2023-04-13T22:10:36.651Z,16.47
2023-04-13T22:13:07.062Z,16.46
2023-04-13T22:15:37.666Z,16.45
2023-04-13T22:18:08.214Z,16.46
2023-04-13T22:20:38.701Z,16.46
2023-04-13T22:23:09.487Z,16.46
2023-04-13T22:25:39.906Z,16.47
2023-04-13T22:28:10.389Z,16.47
2023-04-13T22:30:40.809Z,16.47
2023-04-13T22:33:11.236Z,16.47
2023-04-13T22:35:42.905Z,16.47
2023-04-13T22:38:13.723Z,16.47
2023-04-13T22:40:44.259Z,16.47
2023-04-13T22:43:14.718Z,16.47
2023-04-13T22:45:48.786Z,16.57
2023-04-13T22:48:22.524Z,16.69
2023-04-13T22:50:55.578Z,16.81
2023-04-13T22:53:27.445Z,16.91
2023-04-13T22:56:02.098Z,16.97
2023-04-13T22:58:32.703Z,17.06
2023-04-13T23:01:06.105Z,17.10
2023-04-13T23:03:37.525Z,17.15
2023-04-13T23:06:08.446Z,17.15
2023-04-13T23:08:38.814Z,17.21
2023-04-13T23:11:12.643Z,17.23
2023-04-13T23:13:48.230Z,17.26
2023-04-13T23:16:18.689Z,17.29
2023-04-13T23:18:49.262Z,17.31
2023-04-13T23:21:19.804Z,17.32
2023-04-13T23:23:50.288Z,17.37
2023-04-13T23:26:21.050Z,17.47
2023-04-13T23:28:51.486Z,17.50
2023-04-13T23:31:22.032Z,17.46
2023-04-13T23:33:53.908Z,17.52
2023-04-13T23:36:26.011Z,17.53
2023-04-13T23:38:56.517Z,17.54
2023-04-13T23:41:26.941Z,17.58
2023-04-13T23:43:57.986Z,17.57
2023-04-13T23:46:30.376Z,17.60
2023-04-13T23:49:01.252Z,17.79
2023-04-13T23:51:32.679Z,17.80
2023-04-13T23:54:06.272Z,17.84
2023-04-13T23:56:38.553Z,17.85
2023-04-13T23:59:08.949Z,17.85
